Time;durP1;ratioP1;P1;durP2;ratioP2;P2;SDS_P1;SDS_P2;PMS_P1;PMS_P2;Temp;Humidity;BMP_temperature;BMP_pressure;BME280_temperature;BME280_humidity;BME280_pressure;Samples;Min_cycle;Max_cycle;Signal;HPM_P1;HPM_P2
2021/05/31 00:02:08;;;;;;;28.20;18.98;;;;;;;;;;5045120;28;20021;-48
2021/05/31 00:04:34;;;;;;;18.88;10.30;;;;;;;;;;5045296;28;20048;-50
2021/05/31 00:07:06;;;;;;;24.52;14.27;;;;;;;;;;5044889;28;20029;-47
2021/05/31 00:09:34;;;;;;;62.80;39.50;;;;;;;;;;5044577;28;20029;-50
2021/05/31 00:12:01;;;;;;;26.27;16.40;;;;;;;;;;5044565;28;20017;-47
2021/05/31 00:14:27;;;;;;;48.78;31.92;;;;;;;;;;5044516;28;20025;-46
2021/05/31 00:16:53;;;;;;;41.55;26.73;;;;;;;;;;5044393;28;20029;-48
2021/05/31 00:19:20;;;;;;;30.73;20.02;;;;;;;;;;5047885;28;21687;-49
2021/05/31 00:21:47;;;;;;;17.38;11.70;;;;;;;;;;5075533;28;20031;-47
2021/05/31 00:24:13;;;;;;;21.65;13.85;;;;;;;;;;5076086;28;20043;-52
2021/05/31 00:26:39;;;;;;;68.60;44.92;;;;;;;;;;5056619;28;20480;-52
2021/05/31 00:29:05;;;;;;;24.52;15.55;;;;;;;;;;5075317;28;20432;-51
2021/05/31 00:31:31;;;;;;;29.40;20.40;;;;;;;;;;5075062;28;20025;-51
2021/05/31 00:33:58;;;;;;;66.45;40.55;;;;;;;;;;5075075;28;20468;-51
2021/05/31 00:36:28;;;;;;;52.63;33.88;;;;;;;;;;5074920;28;20024;-52
2021/05/31 00:38:55;;;;;;;21.75;14.32;;;;;;;;;;5075395;28;20032;-52
2021/05/31 00:41:21;;;;;;;25.08;17.83;;;;;;;;;;5074929;28;20024;-51
2021/05/31 00:43:50;;;;;;;72.10;44.97;;;;;;;;;;5075344;28;20415;-51
2021/05/31 00:46:17;;;;;;;43.13;26.88;;;;;;;;;;5057339;28;20499;-52
2021/05/31 00:48:43;;;;;;;39.58;26.25;;;;;;;;;;5074401;28;20392;-51
2021/05/31 00:51:11;;;;;;;32.28;20.05;;;;;;;;;;5074226;28;20043;-49
2021/05/31 00:53:38;;;;;;;31.00;20.45;;;;;;;;;;5074518;28;20383;-53
2021/05/31 00:56:05;;;;;;;23.38;15.05;;;;;;;;;;5074467;28;20028;-54
2021/05/31 00:58:31;;;;;;;39.00;22.20;;;;;;;;;;5075021;28;20032;-54
2021/05/31 01:01:01;;;;;;;29.58;18.63;;;;;;;;;;5074559;28;20025;-52
2021/05/31 01:03:27;;;;;;;23.33;15.65;;;;;;;;;;5074088;28;20020;-52
2021/05/31 01:05:55;;;;;;;20.08;12.13;;;;;;;;;;5074497;28;20044;-51
2021/05/31 01:08:29;;;;;;;28.98;18.27;;;;;;;;;;5074699;28;20060;-52
2021/05/31 01:11:27;;;;;;;16.58;9.70;;;;;;;;;;5074198;28;20027;-52
2021/05/31 01:13:56;;;;;;;13.18;8.43;;;;;;;;;;5031912;28;20069;-49
2021/05/31 01:16:27;;;;;;;8.10;6.40;;;;;;;;;;5032102;28;20555;-51
2021/05/31 01:18:54;;;;;;;11.18;8.38;;;;;;;;;;5031978;28;20147;-51
2021/05/31 01:21:46;;;;;;;6.22;5.22;;;;;;;;;;5031918;28;20053;-51
2021/05/31 01:24:29;;;;;;;16.95;8.50;;;;;;;;;;5003292;28;20077;-51
2021/05/31 01:27:14;;;;;;;19.75;12.38;;;;;;;;;;5032413;28;20038;-47
2021/05/31 01:29:41;;;;;;;37.85;23.33;;;;;;;;;;5031931;28;20121;-52
2021/05/31 01:32:09;;;;;;;25.50;15.50;;;;;;;;;;5032060;28;20034;-52
2021/05/31 01:34:36;;;;;;;12.65;6.03;;;;;;;;;;5031607;28;20033;-51
2021/05/31 01:37:07;;;;;;;18.30;12.75;;;;;;;;;;5031734;28;20036;-53
2021/05/31 01:39:35;;;;;;;15.88;11.68;;;;;;;;;;5015468;28;20060;-50
2021/05/31 01:42:01;;;;;;;24.88;13.85;;;;;;;;;;5031655;28;20022;-53
2021/05/31 01:44:27;;;;;;;22.55;13.10;;;;;;;;;;5031360;28;20500;-51
2021/05/31 01:46:53;;;;;;;67.80;45.30;;;;;;;;;;5031476;28;20025;-53
2021/05/31 01:49:20;;;;;;;40.05;29.17;;;;;;;;;;5050685;28;20041;-54
2021/05/31 01:51:47;;;;;;;26.08;16.00;;;;;;;;;;5073530;28;20090;-51
2021/05/31 01:54:14;;;;;;;34.83;22.15;;;;;;;;;;5074050;28;20036;-60
2021/05/31 01:56:41;;;;;;;42.55;26.85;;;;;;;;;;5073499;28;20108;-53
2021/05/31 01:59:08;;;;;;;23.40;15.40;;;;;;;;;;5073296;28;20033;-53
2021/05/31 02:01:34;;;;;;;24.48;14.82;;;;;;;;;;5073295;28;20483;-50
2021/05/31 02:04:00;;;;;;;13.73;9.88;;;;;;;;;;5073214;28;20468;-49
2021/05/31 02:06:27;;;;;;;10.50;8.48;;;;;;;;;;5055732;28;20020;-54
2021/05/31 02:08:56;;;;;;;10.05;7.13;;;;;;;;;;5073082;28;20107;-52
2021/05/31 02:11:41;;;;;;;6.20;5.30;;;;;;;;;;5073095;28;20028;-54
2021/05/31 02:14:10;;;;;;;4.78;4.03;;;;;;;;;;5073672;28;20028;-51
2021/05/31 02:16:41;;;;;;;6.65;4.20;;;;;;;;;;5073397;28;20107;-46
2021/05/31 02:19:09;;;;;;;11.15;6.05;;;;;;;;;;5072919;28;20036;-47
2021/05/31 02:21:36;;;;;;;11.23;5.18;;;;;;;;;;5073415;28;20025;-48
2021/05/31 02:24:02;;;;;;;6.30;5.00;;;;;;;;;;5072920;28;20036;-47
2021/05/31 02:26:29;;;;;;;3.97;3.50;;;;;;;;;;5073159;28;20104;-50
2021/05/31 02:28:55;;;;;;;8.52;5.25;;;;;;;;;;5054942;28;20078;-48
2021/05/31 02:31:21;;;;;;;5.65;3.97;;;;;;;;;;5073014;28;20102;-50
2021/05/31 02:33:47;;;;;;;8.77;4.78;;;;;;;;;;5072885;28;20021;-51
2021/05/31 02:36:14;;;;;;;3.78;3.38;;;;;;;;;;5072828;28;20047;-54
2021/05/31 02:38:42;;;;;;;3.80;3.30;;;;;;;;;;5073350;28;20071;-53
2021/05/31 02:41:09;;;;;;;4.57;3.58;;;;;;;;;;5072574;28;20020;-52
2021/05/31 02:43:35;;;;;;;5.70;3.20;;;;;;;;;;5071866;28;20475;-52
2021/05/31 02:46:01;;;;;;;5.88;3.15;;;;;;;;;;5072706;28;20070;-51
2021/05/31 02:48:28;;;;;;;4.22;3.25;;;;;;;;;;5072592;28;20090;-52
2021/05/31 02:50:57;;;;;;;2.63;2.42;;;;;;;;;;5072329;28;20029;-48
2021/05/31 02:53:26;;;;;;;3.20;2.90;;;;;;;;;;5073309;28;20072;-51
2021/05/31 02:55:55;;;;;;;3.10;2.67;;;;;;;;;;5073104;28;20048;-53
2021/05/31 02:58:21;;;;;;;4.00;2.80;;;;;;;;;;5072603;28;20221;-53
2021/05/31 03:00:47;;;;;;;4.78;3.10;;;;;;;;;;5072909;28;20051;-55
2021/05/31 03:03:13;;;;;;;5.70;3.00;;;;;;;;;;5072538;28;20059;-54
2021/05/31 03:05:42;;;;;;;3.63;2.40;;;;;;;;;;5072700;28;20473;-54
2021/05/31 03:08:08;;;;;;;3.33;2.60;;;;;;;;;;5072596;28;20054;-48
2021/05/31 03:10:36;;;;;;;3.20;2.20;;;;;;;;;;5073062;28;20017;-52
2021/05/31 03:13:03;;;;;;;3.35;2.33;;;;;;;;;;5072710;28;20094;-53
2021/05/31 03:15:30;;;;;;;2.72;2.45;;;;;;;;;;5072390;28;20031;-52
2021/05/31 03:17:56;;;;;;;4.82;2.63;;;;;;;;;;5072804;28;20028;-52
2021/05/31 03:20:29;;;;;;;3.28;2.72;;;;;;;;;;5072426;28;20119;-48
2021/05/31 03:22:55;;;;;;;5.00;2.08;;;;;;;;;;5070975;28;20107;-48
2021/05/31 03:25:24;;;;;;;2.58;2.00;;;;;;;;;;5072126;28;20073;-48
2021/05/31 03:27:52;;;;;;;2.67;1.40;;;;;;;;;;5072292;28;20031;-49
2021/05/31 03:30:18;;;;;;;2.30;1.92;;;;;;;;;;5072219;28;20060;-49
2021/05/31 03:32:44;;;;;;;4.18;1.77;;;;;;;;;;5072358;28;20498;-47
2021/05/31 03:35:12;;;;;;;2.33;1.50;;;;;;;;;;5072182;28;20035;-49
2021/05/31 03:37:39;;;;;;;1.42;1.33;;;;;;;;;;5071984;28;20052;-58
2021/05/31 03:40:06;;;;;;;2.15;1.58;;;;;;;;;;5072174;28;20052;-52
2021/05/31 03:42:34;;;;;;;1.80;1.58;;;;;;;;;;5072373;28;20027;-51
2021/05/31 03:45:00;;;;;;;1.60;1.50;;;;;;;;;;5072044;28;20031;-52
2021/05/31 03:47:26;;;;;;;2.28;1.67;;;;;;;;;;5072433;28;20052;-51
2021/05/31 03:49:52;;;;;;;3.15;1.80;;;;;;;;;;5072462;28;20060;-53
2021/05/31 03:52:18;;;;;;;1.92;1.60;;;;;;;;;;5072392;28;20048;-52
2021/05/31 03:54:45;;;;;;;1.95;1.40;;;;;;;;;;5073606;28;20104;-51
2021/05/31 03:57:11;;;;;;;3.20;2.20;;;;;;;;;;5075783;28;20032;-52
2021/05/31 03:59:37;;;;;;;4.50;1.90;;;;;;;;;;5075685;28;20064;-53
2021/05/31 04:02:03;;;;;;;3.05;1.60;;;;;;;;;;5075651;28;20111;-53
2021/05/31 04:04:39;;;;;;;1.80;1.70;;;;;;;;;;5076421;28;20028;-54
2021/05/31 04:12:52;;;;;;;3.65;1.38;;;;;;;;;;4974940;28;20113;-51
2021/05/31 04:15:21;;;;;;;3.05;1.55;;;;;;;;;;4974703;28;20058;-53
2021/05/31 04:17:47;;;;;;;3.40;1.30;;;;;;;;;;4974371;28;20412;-55
2021/05/31 04:20:14;;;;;;;4.05;1.67;;;;;;;;;;4974624;28;20108;-51
2021/05/31 04:22:40;;;;;;;2.05;1.25;;;;;;;;;;4974778;28;20114;-53
2021/05/31 04:25:06;;;;;;;1.58;1.48;;;;;;;;;;4975063;28;20046;-53
2021/05/31 04:27:32;;;;;;;1.30;1.20;;;;;;;;;;4974864;28;20038;-52
2021/05/31 04:29:59;;;;;;;4.70;1.50;;;;;;;;;;4974609;28;20034;-54
2021/05/31 04:32:25;;;;;;;1.52;1.38;;;;;;;;;;4974322;28;20062;-52
2021/05/31 04:34:52;;;;;;;3.40;1.27;;;;;;;;;;4974214;28;20060;-52
2021/05/31 04:37:18;;;;;;;5.25;1.73;;;;;;;;;;4974744;28;20110;-53
2021/05/31 04:39:44;;;;;;;5.38;1.85;;;;;;;;;;4974226;28;20038;-51
2021/05/31 04:42:10;;;;;;;2.75;1.75;;;;;;;;;;4974077;28;20033;-54
2021/05/31 04:44:36;;;;;;;2.67;1.55;;;;;;;;;;5045367;28;20396;-53
2021/05/31 04:47:03;;;;;;;3.95;1.55;;;;;;;;;;5074832;28;20024;-49
2021/05/31 04:49:29;;;;;;;3.10;1.20;;;;;;;;;;5074801;28;20032;-55
2021/05/31 04:51:55;;;;;;;2.10;1.40;;;;;;;;;;5074601;28;20040;-55
2021/05/31 04:54:21;;;;;;;5.22;1.50;;;;;;;;;;5074925;28;20380;-53
2021/05/31 04:56:47;;;;;;;3.05;1.73;;;;;;;;;;5074959;28;20027;-52
2021/05/31 04:59:14;;;;;;;4.82;1.65;;;;;;;;;;5074332;28;20116;-53
2021/05/31 05:01:40;;;;;;;1.75;1.30;;;;;;;;;;5074492;28;20048;-53
2021/05/31 05:04:07;;;;;;;2.47;1.63;;;;;;;;;;5074844;28;20472;-54
2021/05/31 05:06:36;;;;;;;3.17;2.40;;;;;;;;;;5073463;28;20067;-52
2021/05/31 05:09:03;;;;;;;19.42;9.07;;;;;;;;;;5074063;28;20373;-51
2021/05/31 05:11:29;;;;;;;48.65;20.55;;;;;;;;;;5074317;28;20028;-50
2021/05/31 05:13:55;;;;;;;50.65;23.73;;;;;;;;;;5074429;28;20036;-52
2021/05/31 05:16:21;;;;;;;61.75;27.27;;;;;;;;;;5074207;28;20103;-54
2021/05/31 05:18:49;;;;;;;40.47;20.45;;;;;;;;;;5074269;28;20389;-51
2021/05/31 05:21:18;;;;;;;23.83;10.77;;;;;;;;;;5073984;28;20090;-46
2021/05/31 05:23:46;;;;;;;29.85;13.23;;;;;;;;;;5073860;28;20036;-53
2021/05/31 05:26:12;;;;;;;106.28;44.42;;;;;;;;;;5074210;28;20031;-52
2021/05/31 05:28:39;;;;;;;72.55;29.73;;;;;;;;;;5074591;28;20028;-52
2021/05/31 05:31:07;;;;;;;29.67;13.65;;;;;;;;;;5073826;28;20082;-51
2021/05/31 05:33:37;;;;;;;7.38;4.63;;;;;;;;;;5055553;28;20039;-49
2021/05/31 05:36:31;;;;;;;6.18;3.80;;;;;;;;;;5073721;28;20024;-48
2021/05/31 05:49:25;;;;;;;12.77;5.93;;;;;;;;;;5073414;28;20170;-52
2021/05/31 05:51:51;;;;;;;27.73;12.43;;;;;;;;;;5073293;28;20040;-53
2021/05/31 05:54:20;;;;;;;33.85;17.95;;;;;;;;;;5073849;28;20033;-51
2021/05/31 05:56:46;;;;;;;30.23;16.25;;;;;;;;;;5073998;28;20028;-54
2021/05/31 05:59:12;;;;;;;23.92;15.27;;;;;;;;;;5073321;28;20423;-55
2021/05/31 06:01:38;;;;;;;18.35;10.40;;;;;;;;;;5073217;28;20021;-51
2021/05/31 06:04:04;;;;;;;18.20;9.82;;;;;;;;;;5073284;28;20048;-52
2021/05/31 06:06:30;;;;;;;17.00;9.82;;;;;;;;;;5055430;28;20021;-53
2021/05/31 06:08:57;;;;;;;12.82;6.65;;;;;;;;;;5073828;28;20119;-52
2021/05/31 06:11:25;;;;;;;4.55;2.88;;;;;;;;;;5073046;28;20054;-52
2021/05/31 06:13:52;;;;;;;9.48;5.07;;;;;;;;;;5073075;28;20048;-52
2021/05/31 06:16:20;;;;;;;13.00;7.20;;;;;;;;;;5054149;28;20370;-55
2021/05/31 06:18:47;;;;;;;8.52;3.83;;;;;;;;;;5072854;28;20457;-55
2021/05/31 06:21:13;;;;;;;6.60;3.35;;;;;;;;;;5072923;28;20466;-55
2021/05/31 06:23:39;;;;;;;7.05;3.35;;;;;;;;;;5073509;28;20097;-54
2021/05/31 06:26:05;;;;;;;5.97;3.70;;;;;;;;;;5072945;28;20029;-53
2021/05/31 06:28:31;;;;;;;6.38;3.88;;;;;;;;;;5072969;28;20024;-52
2021/05/31 06:30:57;;;;;;;20.02;12.02;;;;;;;;;;5073233;28;20483;-55
2021/05/31 06:33:23;;;;;;;26.00;14.27;;;;;;;;;;5072791;28;20108;-52
2021/05/31 06:35:51;;;;;;;18.02;9.57;;;;;;;;;;5073436;28;20017;-56
2021/05/31 06:38:19;;;;;;;20.77;10.60;;;;;;;;;;5073012;28;20055;-51
2021/05/31 06:40:45;;;;;;;18.42;10.35;;;;;;;;;;5072798;28;20021;-53
2021/05/31 06:43:11;;;;;;;17.25;10.52;;;;;;;;;;5072641;28;20025;-53
2021/05/31 06:45:37;;;;;;;23.77;14.10;;;;;;;;;;5072810;28;20021;-54
2021/05/31 06:48:04;;;;;;;30.77;17.95;;;;;;;;;;5073293;28;20028;-54
2021/05/31 06:50:33;;;;;;;34.83;17.40;;;;;;;;;;5072433;28;20029;-54
2021/05/31 06:53:00;;;;;;;13.30;8.43;;;;;;;;;;5073208;28;20522;-54
2021/05/31 06:55:27;;;;;;;31.52;18.80;;;;;;;;;;5072540;28;20052;-54
2021/05/31 06:57:53;;;;;;;16.85;8.25;;;;;;;;;;5072617;28;20024;-52
2021/05/31 07:00:21;;;;;;;24.00;12.10;;;;;;;;;;5072327;28;20033;-55
2021/05/31 07:02:47;;;;;;;6.65;3.80;;;;;;;;;;5072487;28;20035;-49
2021/05/31 07:05:19;;;;;;;12.95;6.00;;;;;;;;;;5072380;28;20132;-51
2021/05/31 07:07:45;;;;;;;8.27;5.25;;;;;;;;;;5072179;28;20420;-51
2021/05/31 07:10:13;;;;;;;9.88;5.60;;;;;;;;;;5072457;28;20469;-52
2021/05/31 07:12:42;;;;;;;12.10;7.10;;;;;;;;;;5072365;28;20055;-49
2021/05/31 07:15:11;;;;;;;21.38;10.35;;;;;;;;;;5069148;28;20384;-51
2021/05/31 07:17:37;;;;;;;21.00;10.50;;;;;;;;;;5071841;28;20016;-50
2021/05/31 07:20:07;;;;;;;28.92;14.32;;;;;;;;;;5072007;28;20115;-52
2021/05/31 07:22:33;;;;;;;26.05;13.20;;;;;;;;;;5072152;28;20028;-53
2021/05/31 07:25:00;;;;;;;36.15;21.98;;;;;;;;;;5071493;28;20092;-52
2021/05/31 07:27:26;;;;;;;30.70;17.70;;;;;;;;;;5071688;28;20074;-53
2021/05/31 07:29:52;;;;;;;49.00;26.63;;;;;;;;;;5072927;28;20460;-53
2021/05/31 07:32:19;;;;;;;74.43;44.67;;;;;;;;;;5075498;28;20461;-48
2021/05/31 07:34:45;;;;;;;44.13;25.38;;;;;;;;;;5075549;28;20031;-48
2021/05/31 07:37:12;;;;;;;33.03;18.70;;;;;;;;;;5075654;28;20443;-48
2021/05/31 07:39:38;;;;;;;51.55;28.38;;;;;;;;;;5075466;28;20036;-49
2021/05/31 07:42:09;;;;;;;20.75;10.18;;;;;;;;;;5075427;28;20016;-49
2021/05/31 07:44:35;;;;;;;59.63;35.07;;;;;;;;;;5075832;28;20094;-48
2021/05/31 07:47:02;;;;;;;49.83;27.52;;;;;;;;;;5075888;28;20012;-52
2021/05/31 07:49:28;;;;;;;95.82;59.50;;;;;;;;;;5072630;28;20033;-54
2021/05/31 07:51:55;;;;;;;38.00;23.33;;;;;;;;;;5075301;28;20098;-53
2021/05/31 07:54:23;;;;;;;42.08;25.55;;;;;;;;;;5075555;28;20056;-56
2021/05/31 07:56:49;;;;;;;62.67;37.85;;;;;;;;;;5072702;28;20016;-54
2021/05/31 07:59:16;;;;;;;89.47;48.97;;;;;;;;;;5074880;28;20458;-49
2021/05/31 08:01:42;;;;;;;21.38;11.80;;;;;;;;;;5075535;28;20528;-50
2021/05/31 08:04:08;;;;;;;43.65;14.73;;;;;;;;;;5075495;28;20025;-48
2021/05/31 08:06:35;;;;;;;16.52;8.38;;;;;;;;;;5075639;28;20479;-49
2021/05/31 08:09:01;;;;;;;21.50;10.80;;;;;;;;;;5057370;28;20384;-48
2021/05/31 08:11:28;;;;;;;24.00;12.00;;;;;;;;;;5076008;28;20032;-47
2021/05/31 08:13:54;;;;;;;32.72;17.33;;;;;;;;;;5075756;28;20029;-49
2021/05/31 08:16:20;;;;;;;62.50;35.15;;;;;;;;;;5075842;28;20012;-52
2021/05/31 08:18:46;;;;;;;30.13;12.15;;;;;;;;;;5075942;28;20035;-45
2021/05/31 08:21:12;;;;;;;46.70;13.70;;;;;;;;;;5075754;28;20028;-47
2021/05/31 08:23:39;;;;;;;37.65;12.68;;;;;;;;;;5075870;28;20059;-46
2021/05/31 08:26:05;;;;;;;34.17;11.88;;;;;;;;;;5075747;28;20048;-45
2021/05/31 08:28:36;;;;;;;25.05;9.00;;;;;;;;;;5075662;28;20017;-45
2021/05/31 08:31:03;;;;;;;13.70;5.75;;;;;;;;;;5075505;28;20032;-44
2021/05/31 08:33:29;;;;;;;17.02;6.72;;;;;;;;;;5075634;28;20556;-45
2021/05/31 08:35:55;;;;;;;5.25;3.80;;;;;;;;;;5075526;28;20036;-45
2021/05/31 08:38:21;;;;;;;9.73;4.35;;;;;;;;;;5075316;28;20518;-45
2021/05/31 08:40:47;;;;;;;17.77;5.97;;;;;;;;;;5074250;28;20036;-43
2021/05/31 08:43:13;;;;;;;7.82;4.03;;;;;;;;;;5075401;28;20056;-44
2021/05/31 08:45:41;;;;;;;10.48;4.72;;;;;;;;;;5075435;28;20028;-44
2021/05/31 08:48:09;;;;;;;7.60;3.05;;;;;;;;;;5075303;28;20019;-47
2021/05/31 08:50:35;;;;;;;7.90;3.72;;;;;;;;;;5074948;28;20032;-44
2021/05/31 08:53:02;;;;;;;12.23;3.97;;;;;;;;;;5075457;28;20370;-44
2021/05/31 08:55:29;;;;;;;6.30;2.38;;;;;;;;;;5075365;28;20104;-44
2021/05/31 08:57:56;;;;;;;5.55;2.97;;;;;;;;;;5075015;28;20077;-45
2021/05/31 09:00:24;;;;;;;8.52;3.42;;;;;;;;;;5075334;28;20405;-45
2021/05/31 09:02:51;;;;;;;5.72;2.95;;;;;;;;;;5074887;28;20031;-44
2021/05/31 09:05:28;;;;;;;6.15;3.13;;;;;;;;;;5075031;28;20536;-45
2021/05/31 09:07:54;;;;;;;6.75;2.70;;;;;;;;;;5075384;28;20452;-45
2021/05/31 09:10:21;;;;;;;8.20;3.67;;;;;;;;;;5074978;28;20498;-45
2021/05/31 09:12:47;;;;;;;7.43;3.30;;;;;;;;;;5074836;28;20028;-44
2021/05/31 09:15:14;;;;;;;4.55;2.95;;;;;;;;;;5073686;28;20480;-45
2021/05/31 09:17:41;;;;;;;4.18;2.00;;;;;;;;;;5074765;28;20047;-45
2021/05/31 09:20:08;;;;;;;3.55;2.20;;;;;;;;;;5074686;28;20044;-45
2021/05/31 09:22:44;;;;;;;5.15;2.42;;;;;;;;;;5074879;28;20024;-44
2021/05/31 09:25:10;;;;;;;10.57;6.15;;;;;;;;;;5074840;28;20033;-44
2021/05/31 09:27:38;;;;;;;6.95;3.85;;;;;;;;;;5074504;28;20025;-45
2021/05/31 09:30:06;;;;;;;17.70;9.07;;;;;;;;;;5074699;28;20025;-48
2021/05/31 09:32:32;;;;;;;7.18;3.63;;;;;;;;;;5074947;28;20017;-46
2021/05/31 09:35:07;;;;;;;3.95;3.08;;;;;;;;;;5074589;28;20047;-44
2021/05/31 09:37:35;;;;;;;6.70;4.30;;;;;;;;;;5074427;28;20025;-46
2021/05/31 09:40:05;;;;;;;6.78;4.13;;;;;;;;;;5073993;28;20068;-46
2021/05/31 09:42:32;;;;;;;4.88;3.67;;;;;;;;;;5073210;28;20052;-46
2021/05/31 09:45:07;;;;;;;2.63;2.20;;;;;;;;;;5074224;28;20028;-46
2021/05/31 09:47:34;;;;;;;4.40;2.75;;;;;;;;;;5056244;28;20384;-45
2021/05/31 09:50:00;;;;;;;3.20;2.30;;;;;;;;;;5074418;28;20021;-45
2021/05/31 09:52:27;;;;;;;2.67;2.22;;;;;;;;;;5073416;28;20178;-45
2021/05/31 09:54:54;;;;;;;4.55;2.58;;;;;;;;;;5074175;28;20028;-45
2021/05/31 09:57:27;;;;;;;4.60;2.30;;;;;;;;;;5074012;28;20021;-46
2021/05/31 09:59:56;;;;;;;5.45;2.00;;;;;;;;;;5074117;28;20036;-45
2021/05/31 10:10:43;;;;;;;2.65;2.10;;;;;;;;;;5074048;28;20043;-46
2021/05/31 10:13:09;;;;;;;6.05;1.90;;;;;;;;;;5073770;28;20151;-45
2021/05/31 10:15:39;;;;;;;1.98;1.65;;;;;;;;;;5073684;28;20040;-46
2021/05/31 10:18:05;;;;;;;3.30;2.78;;;;;;;;;;5073815;28;20017;-45
2021/05/31 10:20:32;;;;;;;5.70;3.00;;;;;;;;;;5073698;28;20086;-47
2021/05/31 10:22:59;;;;;;;2.10;1.67;;;;;;;;;;5073817;28;20032;-46
2021/05/31 10:25:28;;;;;;;1.85;1.50;;;;;;;;;;5073450;28;20024;-44
2021/05/31 10:27:56;;;;;;;2.83;1.98;;;;;;;;;;5073605;28;20103;-47
2021/05/31 10:30:22;;;;;;;3.42;2.10;;;;;;;;;;5073448;28;20476;-47
2021/05/31 10:32:49;;;;;;;3.95;2.17;;;;;;;;;;5055527;28;20538;-47
2021/05/31 10:35:15;;;;;;;6.78;1.85;;;;;;;;;;5073664;28;20388;-47
2021/05/31 10:37:43;;;;;;;3.05;2.50;;;;;;;;;;5073528;28;20026;-47
2021/05/31 10:40:11;;;;;;;2.40;1.50;;;;;;;;;;5073379;28;20523;-45
2021/05/31 10:42:38;;;;;;;3.17;2.05;;;;;;;;;;5073424;28;20103;-45
2021/05/31 10:45:21;;;;;;;3.28;1.63;;;;;;;;;;5073364;28;20103;-46
2021/05/31 10:48:04;;;;;;;2.67;1.63;;;;;;;;;;5073876;28;20023;-46
2021/05/31 10:50:32;;;;;;;2.50;1.83;;;;;;;;;;5073408;28;20031;-45
2021/05/31 10:52:58;;;;;;;3.42;1.90;;;;;;;;;;5073220;28;20450;-48
2021/05/31 10:55:26;;;;;;;3.83;2.42;;;;;;;;;;5073212;28;20108;-45
2021/05/31 10:57:53;;;;;;;4.60;2.53;;;;;;;;;;5073146;28;20060;-48
2021/05/31 11:00:39;;;;;;;3.50;2.35;;;;;;;;;;5073107;28;20456;-46
2021/05/31 11:03:10;;;;;;;2.22;2.03;;;;;;;;;;5073348;28;20067;-45
2021/05/31 11:05:36;;;;;;;4.65;3.42;;;;;;;;;;5076148;28;20029;-46
2021/05/31 11:08:04;;;;;;;7.60;4.68;;;;;;;;;;5077298;28;20036;-47
2021/05/31 11:10:34;;;;;;;6.60;2.95;;;;;;;;;;5077297;28;20012;-45
2021/05/31 11:13:10;;;;;;;2.38;2.17;;;;;;;;;;5077391;28;20031;-46
2021/05/31 11:15:36;;;;;;;1.83;1.73;;;;;;;;;;5077108;28;20460;-45
2021/05/31 11:18:03;;;;;;;3.22;2.17;;;;;;;;;;5077087;28;20149;-46
2021/05/31 11:20:33;;;;;;;6.22;3.97;;;;;;;;;;5076972;28;20119;-46
2021/05/31 11:23:03;;;;;;;4.38;2.25;;;;;;;;;;5076960;28;20103;-45
2021/05/31 11:25:30;;;;;;;2.60;2.20;;;;;;;;;;5077146;28;20476;-46
2021/05/31 11:27:58;;;;;;;3.00;2.50;;;;;;;;;;5077148;28;20510;-45
2021/05/31 11:30:26;;;;;;;2.60;2.03;;;;;;;;;;5076907;28;20028;-46
2021/05/31 11:32:52;;;;;;;3.42;2.10;;;;;;;;;;5076719;28;20044;-46
2021/05/31 11:35:19;;;;;;;7.22;2.80;;;;;;;;;;5076781;28;20521;-45
2021/05/31 11:37:48;;;;;;;3.72;2.92;;;;;;;;;;5075373;28;20044;-45
2021/05/31 11:40:21;;;;;;;2.28;2.08;;;;;;;;;;5077149;28;20082;-45
2021/05/31 11:42:47;;;;;;;14.48;5.72;;;;;;;;;;5076696;28;20032;-45
2021/05/31 11:45:14;;;;;;;37.20;11.45;;;;;;;;;;5076440;28;20032;-47
2021/05/31 11:47:40;;;;;;;37.75;12.38;;;;;;;;;;5076702;28;20025;-45
2021/05/31 11:50:09;;;;;;;44.67;15.52;;;;;;;;;;5076172;28;20476;-46
2021/05/31 11:52:35;;;;;;;20.10;9.13;;;;;;;;;;5076530;28;20049;-46
2021/05/31 11:55:01;;;;;;;9.45;5.28;;;;;;;;;;5076507;28;20021;-46
2021/05/31 11:57:28;;;;;;;18.80;7.47;;;;;;;;;;5076368;28;20473;-46
2021/05/31 11:59:55;;;;;;;10.57;5.00;;;;;;;;;;5076469;28;20028;-48
2021/05/31 12:02:25;;;;;;;8.38;5.35;;;;;;;;;;5076352;28;20032;-45
2021/05/31 12:04:52;;;;;;;8.25;5.07;;;;;;;;;;5076684;28;20066;-46
2021/05/31 12:07:20;;;;;;;12.15;6.13;;;;;;;;;;5076304;28;20350;-51
2021/05/31 12:09:46;;;;;;;9.02;5.32;;;;;;;;;;5076045;28;20078;-46
2021/05/31 12:12:14;;;;;;;14.18;6.90;;;;;;;;;;5076126;28;20099;-44
2021/05/31 12:14:44;;;;;;;7.93;5.88;;;;;;;;;;5076163;28;20031;-44
2021/05/31 12:17:11;;;;;;;6.35;5.20;;;;;;;;;;5075970;28;20021;-48
2021/05/31 12:19:37;;;;;;;6.05;5.15;;;;;;;;;;5075689;28;20021;-46
2021/05/31 12:22:04;;;;;;;11.35;6.03;;;;;;;;;;5076175;28;20036;-45
2021/05/31 12:24:31;;;;;;;12.57;7.07;;;;;;;;;;5075749;28;20027;-46
2021/05/31 12:26:59;;;;;;;8.55;6.20;;;;;;;;;;5075956;28;20035;-45
2021/05/31 12:29:35;;;;;;;7.80;5.85;;;;;;;;;;5075581;28;20444;-46
2021/05/31 12:32:03;;;;;;;7.20;5.53;;;;;;;;;;5075306;28;20021;-49
2021/05/31 12:34:29;;;;;;;15.30;12.15;;;;;;;;;;5075384;28;20024;-48
2021/05/31 12:36:55;;;;;;;21.30;14.60;;;;;;;;;;5075463;28;20562;-48
2021/05/31 12:39:22;;;;;;;67.93;40.92;;;;;;;;;;5075370;28;20068;-49
2021/05/31 12:41:48;;;;;;;74.10;46.38;;;;;;;;;;5075256;28;20100;-49
2021/05/31 12:44:14;;;;;;;27.70;18.17;;;;;;;;;;5075352;28;20032;-49
2021/05/31 12:46:42;;;;;;;17.25;10.65;;;;;;;;;;5075247;28;20074;-47
2021/05/31 12:49:08;;;;;;;17.75;11.20;;;;;;;;;;5075332;28;20024;-47
2021/05/31 12:51:35;;;;;;;33.53;20.20;;;;;;;;;;5074850;28;20051;-48
2021/05/31 12:54:02;;;;;;;23.15;12.82;;;;;;;;;;5075150;28;20020;-50
2021/05/31 12:56:32;;;;;;;53.80;30.98;;;;;;;;;;5074907;28;20021;-48
2021/05/31 12:59:16;;;;;;;25.75;17.05;;;;;;;;;;5075150;28;20097;-49
2021/05/31 13:01:43;;;;;;;31.42;17.33;;;;;;;;;;5074781;28;20025;-47
2021/05/31 13:04:09;;;;;;;16.15;8.68;;;;;;;;;;5074966;28;20036;-48
2021/05/31 13:06:36;;;;;;;83.65;58.83;;;;;;;;;;5074824;28;20033;-47
2021/05/31 13:09:04;;;;;;;27.67;18.13;;;;;;;;;;5074638;28;20028;-46
2021/05/31 13:11:45;;;;;;;13.90;7.97;;;;;;;;;;5074680;28;20024;-50
2021/05/31 13:14:15;;;;;;;41.20;29.20;;;;;;;;;;5074709;28;20027;-48
2021/05/31 13:16:51;;;;;;;27.90;17.83;;;;;;;;;;5074807;28;20380;-52
2021/05/31 13:19:18;;;;;;;11.18;5.65;;;;;;;;;;5074528;28;20036;-50
2021/05/31 13:21:44;;;;;;;19.58;13.50;;;;;;;;;;5074477;28;20502;-48
2021/05/31 13:24:12;;;;;;;33.22;19.02;;;;;;;;;;5074557;28;20039;-48
2021/05/31 13:26:38;;;;;;;76.35;48.05;;;;;;;;;;5074125;28;20024;-47
2021/05/31 13:29:05;;;;;;;31.00;21.13;;;;;;;;;;5074227;28;20024;-48
2021/05/31 13:31:31;;;;;;;26.50;14.98;;;;;;;;;;5074317;28;20017;-47
2021/05/31 13:33:57;;;;;;;7.60;4.70;;;;;;;;;;5074291;28;20363;-48
2021/05/31 13:36:26;;;;;;;15.48;10.57;;;;;;;;;;5074467;28;20025;-48
2021/05/31 13:38:52;;;;;;;28.95;15.60;;;;;;;;;;5074634;28;20027;-47
2021/05/31 13:41:18;;;;;;;35.78;22.50;;;;;;;;;;5074350;28;20027;-48
2021/05/31 13:43:54;;;;;;;21.73;14.02;;;;;;;;;;5074503;28;20457;-48
2021/05/31 13:46:20;;;;;;;45.67;29.33;;;;;;;;;;5074674;28;20032;-48
2021/05/31 13:48:49;;;;;;;14.75;7.60;;;;;;;;;;5074131;28;20020;-49
2021/05/31 13:51:15;;;;;;;12.48;6.50;;;;;;;;;;5073927;28;20048;-49
2021/05/31 13:53:41;;;;;;;6.32;2.97;;;;;;;;;;5074113;28;20047;-48
2021/05/31 13:56:07;;;;;;;24.38;17.17;;;;;;;;;;5073822;28;20020;-51
2021/05/31 13:58:33;;;;;;;50.38;31.38;;;;;;;;;;5073920;28;20021;-50
2021/05/31 14:01:01;;;;;;;26.95;16.08;;;;;;;;;;5073650;28;20039;-49
2021/05/31 14:03:27;;;;;;;23.83;14.32;;;;;;;;;;5073896;28;20032;-48
2021/05/31 14:05:54;;;;;;;6.88;4.03;;;;;;;;;;5073699;28;20081;-49
2021/05/31 14:08:20;;;;;;;22.85;10.82;;;;;;;;;;5073674;28;20074;-47
2021/05/31 14:10:47;;;;;;;7.80;2.90;;;;;;;;;;5073543;28;20029;-48
2021/05/31 14:13:13;;;;;;;11.40;3.53;;;;;;;;;;5073662;28;20036;-48
2021/05/31 14:15:39;;;;;;;2.95;1.92;;;;;;;;;;5073941;28;20048;-48
2021/05/31 14:18:06;;;;;;;8.10;2.95;;;;;;;;;;5073784;28;20438;-49
2021/05/31 14:20:32;;;;;;;2.60;2.10;;;;;;;;;;5073451;28;20370;-48
2021/05/31 14:23:02;;;;;;;3.60;1.85;;;;;;;;;;5073504;28;20400;-48
2021/05/31 14:25:28;;;;;;;4.15;2.60;;;;;;;;;;5073355;28;20027;-46
2021/05/31 14:27:54;;;;;;;5.20;2.30;;;;;;;;;;5073409;28;20063;-47
2021/05/31 14:30:21;;;;;;;4.28;3.40;;;;;;;;;;5073370;28;20031;-48
2021/05/31 14:32:48;;;;;;;4.07;3.53;;;;;;;;;;5073708;28;20027;-49
2021/05/31 14:35:14;;;;;;;7.07;4.05;;;;;;;;;;5073242;28;20030;-49
2021/05/31 14:37:40;;;;;;;8.25;5.63;;;;;;;;;;5073216;28;20082;-49
2021/05/31 14:40:07;;;;;;;8.55;5.03;;;;;;;;;;5054989;28;20036;-48
2021/05/31 14:42:33;;;;;;;20.23;14.18;;;;;;;;;;5073054;28;20082;-48
2021/05/31 14:44:59;;;;;;;25.45;17.55;;;;;;;;;;5073030;28;20428;-50
2021/05/31 14:47:28;;;;;;;28.75;18.40;;;;;;;;;;5073268;28;20027;-49
2021/05/31 14:49:54;;;;;;;29.15;18.35;;;;;;;;;;5073223;28;20050;-49
2021/05/31 14:52:21;;;;;;;20.00;11.32;;;;;;;;;;5073106;28;20091;-49
2021/05/31 14:54:50;;;;;;;23.50;12.45;;;;;;;;;;5073460;28;20031;-46
2021/05/31 14:57:16;;;;;;;14.25;10.00;;;;;;;;;;5072792;28;20056;-49
2021/05/31 14:59:44;;;;;;;27.45;11.70;;;;;;;;;;5054847;28;20504;-49